sensor_id;sensor_type;location;lat;lon;timestamp;pressure;altitude;pressure_sealevel;temperature;humidity
75640;BME280;64233;51.486;6.332;2023-03-01T00:01:12;102749.16;;;-2.27;90.31
75640;BME280;64233;51.486;6.332;2023-03-01T00:03:38;102742.44;;;-2.31;90.69
75640;BME280;64233;51.486;6.332;2023-03-01T00:06:04;102748.03;;;-2.35;90.86
75640;BME280;64233;51.486;6.332;2023-03-01T00:08:30;102743.50;;;-2.45;91.24
75640;BME280;64233;51.486;6.332;2023-03-01T00:11:07;102740.03;;;-2.45;91.55
75640;BME280;64233;51.486;6.332;2023-03-01T00:13:34;102751.97;;;-2.41;91.42
75640;BME280;64233;51.486;6.332;2023-03-01T00:16:02;102756.16;;;-2.38;91.32
75640;BME280;64233;51.486;6.332;2023-03-01T00:18:28;102756.44;;;-2.30;90.95
75640;BME280;64233;51.486;6.332;2023-03-01T00:20:54;102748.31;;;-2.27;90.71
75640;BME280;64233;51.486;6.332;2023-03-01T00:23:20;102747.09;;;-2.34;90.67
75640;BME280;64233;51.486;6.332;2023-03-01T00:25:46;102752.09;;;-2.43;90.65
75640;BME280;64233;51.486;6.332;2023-03-01T00:28:11;102735.66;;;-2.69;90.99
75640;BME280;64233;51.486;6.332;2023-03-01T00:30:36;102741.16;;;-2.72;91.18
75640;BME280;64233;51.486;6.332;2023-03-01T00:33:02;102739.75;;;-2.65;91.58
75640;BME280;64233;51.486;6.332;2023-03-01T00:35:27;102731.00;;;-2.65;91.59
75640;BME280;64233;51.486;6.332;2023-03-01T00:37:53;102727.78;;;-2.69;91.86
75640;BME280;64233;51.486;6.332;2023-03-01T00:40:24;102723.22;;;-2.67;91.86
75640;BME280;64233;51.486;6.332;2023-03-01T00:42:49;102721.09;;;-2.62;91.69
75640;BME280;64233;51.486;6.332;2023-03-01T00:45:14;102721.06;;;-2.73;91.81
75640;BME280;64233;51.486;6.332;2023-03-01T00:47:40;102720.00;;;-2.70;92.01
75640;BME280;64233;51.486;6.332;2023-03-01T00:50:06;102718.56;;;-2.74;91.98
75640;BME280;64233;51.486;6.332;2023-03-01T00:52:31;102709.88;;;-2.99;92.51
75640;BME280;64233;51.486;6.332;2023-03-01T00:54:56;102708.81;;;-2.97;92.89
75640;BME280;64233;51.486;6.332;2023-03-01T00:57:23;102701.81;;;-2.85;92.87
75640;BME280;64233;51.486;6.332;2023-03-01T00:59:48;102706.44;;;-2.88;92.72
75640;BME280;64233;51.486;6.332;2023-03-01T01:02:13;102697.56;;;-2.99;92.89
75640;BME280;64233;51.486;6.332;2023-03-01T01:04:39;102696.91;;;-3.14;93.15
75640;BME280;64233;51.486;6.332;2023-03-01T01:07:04;102711.44;;;-3.21;93.15
75640;BME280;64233;51.486;6.332;2023-03-01T01:09:30;102694.41;;;-3.15;93.61
75640;BME280;64233;51.486;6.332;2023-03-01T01:11:55;102694.91;;;-3.10;93.82
75640;BME280;64233;51.486;6.332;2023-03-01T01:14:21;102687.09;;;-2.87;93.83
75640;BME280;64233;51.486;6.332;2023-03-01T01:16:46;102688.41;;;-2.93;93.59
75640;BME280;64233;51.486;6.332;2023-03-01T01:19:12;102688.16;;;-2.90;93.41
75640;BME280;64233;51.486;6.332;2023-03-01T01:21:38;102687.53;;;-2.94;93.43
75640;BME280;64233;51.486;6.332;2023-03-01T01:24:04;102683.81;;;-3.02;93.49
75640;BME280;64233;51.486;6.332;2023-03-01T01:26:32;102681.41;;;-3.05;93.50
75640;BME280;64233;51.486;6.332;2023-03-01T01:28:59;102671.16;;;-3.08;93.67
75640;BME280;64233;51.486;6.332;2023-03-01T01:31:25;102681.84;;;-3.23;93.83
75640;BME280;64233;51.486;6.332;2023-03-01T01:33:51;102673.84;;;-3.21;94.21
75640;BME280;64233;51.486;6.332;2023-03-01T01:36:17;102668.94;;;-3.26;94.51
75640;BME280;64233;51.486;6.332;2023-03-01T01:38:43;102668.78;;;-3.36;94.94
75640;BME280;64233;51.486;6.332;2023-03-01T01:41:10;102663.94;;;-3.18;94.90
75640;BME280;64233;51.486;6.332;2023-03-01T01:43:44;102663.06;;;-3.30;94.94
75640;BME280;64233;51.486;6.332;2023-03-01T01:46:25;102655.28;;;-3.31;95.09
75640;BME280;64233;51.486;6.332;2023-03-01T01:48:57;102655.84;;;-3.39;95.43
75640;BME280;64233;51.486;6.332;2023-03-01T01:51:28;102644.94;;;-3.21;95.34
75640;BME280;64233;51.486;6.332;2023-03-01T01:54:06;102632.09;;;-3.13;95.04
75640;BME280;64233;51.486;6.332;2023-03-01T01:56:33;102632.53;;;-3.19;94.85
75640;BME280;64233;51.486;6.332;2023-03-01T01:58:59;102637.75;;;-3.31;94.95
75640;BME280;64233;51.486;6.332;2023-03-01T02:01:24;102643.72;;;-3.29;95.13
75640;BME280;64233;51.486;6.332;2023-03-01T02:03:50;102641.88;;;-3.39;95.33
75640;BME280;64233;51.486;6.332;2023-03-01T02:06:27;102646.19;;;-3.38;95.32
75640;BME280;64233;51.486;6.332;2023-03-01T02:08:55;102645.25;;;-3.37;95.53
75640;BME280;64233;51.486;6.332;2023-03-01T02:11:22;102638.44;;;-3.40;95.75
75640;BME280;64233;51.486;6.332;2023-03-01T02:13:48;102638.91;;;-3.35;96.02
75640;BME280;64233;51.486;6.332;2023-03-01T02:16:15;102637.47;;;-3.39;95.67
75640;BME280;64233;51.486;6.332;2023-03-01T02:18:41;102637.38;;;-3.37;95.46
75640;BME280;64233;51.486;6.332;2023-03-01T02:21:17;102647.88;;;-3.37;95.74
75640;BME280;64233;51.486;6.332;2023-03-01T02:23:46;102645.41;;;-3.52;96.03
75640;BME280;64233;51.486;6.332;2023-03-01T02:26:21;102645.63;;;-3.55;96.21
75640;BME280;64233;51.486;6.332;2023-03-01T02:28:50;102638.09;;;-3.59;96.12
75640;BME280;64233;51.486;6.332;2023-03-01T02:31:18;102642.22;;;-3.44;96.43
75640;BME280;64233;51.486;6.332;2023-03-01T02:34:04;102631.88;;;-3.34;95.96
75640;BME280;64233;51.486;6.332;2023-03-01T02:36:36;102621.00;;;-3.41;96.00
75640;BME280;64233;51.486;6.332;2023-03-01T02:39:05;102622.06;;;-3.68;96.16
75640;BME280;64233;51.486;6.332;2023-03-01T02:41:35;102620.50;;;-3.70;96.45
75640;BME280;64233;51.486;6.332;2023-03-01T02:44:03;102630.81;;;-3.56;96.43
75640;BME280;64233;51.486;6.332;2023-03-01T02:46:29;102626.84;;;-3.61;96.54
75640;BME280;64233;51.486;6.332;2023-03-01T02:48:57;102620.38;;;-3.69;96.71
75640;BME280;64233;51.486;6.332;2023-03-01T02:54:18;102629.28;;;-3.58;96.55
75640;BME280;64233;51.486;6.332;2023-03-01T02:56:47;102624.50;;;-3.77;96.82
75640;BME280;64233;51.486;6.332;2023-03-01T02:59:16;102628.38;;;-3.70;96.84
75640;BME280;64233;51.486;6.332;2023-03-01T03:01:43;102631.72;;;-3.68;97.05
75640;BME280;64233;51.486;6.332;2023-03-01T03:04:11;102631.38;;;-3.64;97.07
75640;BME280;64233;51.486;6.332;2023-03-01T03:06:43;102642.19;;;-3.55;97.00
75640;BME280;64233;51.486;6.332;2023-03-01T03:09:08;102635.53;;;-3.48;97.00
75640;BME280;64233;51.486;6.332;2023-03-01T03:11:34;102627.41;;;-3.45;96.59
75640;BME280;64233;51.486;6.332;2023-03-01T03:14:01;102635.13;;;-3.55;96.48
75640;BME280;64233;51.486;6.332;2023-03-01T03:16:27;102630.38;;;-3.74;96.44
75640;BME280;64233;51.486;6.332;2023-03-01T03:18:52;102639.25;;;-3.88;96.98
75640;BME280;64233;51.486;6.332;2023-03-01T03:21:17;102635.38;;;-3.95;97.08
75640;BME280;64233;51.486;6.332;2023-03-01T03:23:49;102631.97;;;-3.84;97.60
75640;BME280;64233;51.486;6.332;2023-03-01T03:26:22;102631.38;;;-3.88;97.63
75640;BME280;64233;51.486;6.332;2023-03-01T03:28:47;102633.06;;;-3.87;97.56
75640;BME280;64233;51.486;6.332;2023-03-01T03:31:13;102633.81;;;-3.98;97.83
75640;BME280;64233;51.486;6.332;2023-03-01T03:33:38;102631.72;;;-3.92;98.10
75640;BME280;64233;51.486;6.332;2023-03-01T03:36:04;102629.47;;;-3.86;98.24
75640;BME280;64233;51.486;6.332;2023-03-01T03:38:30;102620.06;;;-3.88;98.23
75640;BME280;64233;51.486;6.332;2023-03-01T03:41:02;102624.72;;;-3.81;98.43
75640;BME280;64233;51.486;6.332;2023-03-01T03:43:29;102617.03;;;-3.95;98.25
75640;BME280;64233;51.486;6.332;2023-03-01T03:45:55;102616.28;;;-3.97;98.39
75640;BME280;64233;51.486;6.332;2023-03-01T03:48:22;102609.25;;;-3.96;98.62
75640;BME280;64233;51.486;6.332;2023-03-01T03:50:50;102619.03;;;-3.74;98.68
75640;BME280;64233;51.486;6.332;2023-03-01T03:53:16;102605.44;;;-3.79;98.56
75640;BME280;64233;51.486;6.332;2023-03-01T03:55:41;102612.50;;;-3.93;98.61
75640;BME280;64233;51.486;6.332;2023-03-01T03:58:08;102608.59;;;-3.87;98.53
75640;BME280;64233;51.486;6.332;2023-03-01T04:00:37;102617.81;;;-3.82;98.56
75640;BME280;64233;51.486;6.332;2023-03-01T04:03:02;102615.13;;;-3.69;98.60
75640;BME280;64233;51.486;6.332;2023-03-01T04:05:28;102606.06;;;-3.65;98.16
75640;BME280;64233;51.486;6.332;2023-03-01T04:07:53;102607.19;;;-3.80;97.96
75640;BME280;64233;51.486;6.332;2023-03-01T04:10:37;102600.94;;;-3.90;98.16
75640;BME280;64233;51.486;6.332;2023-03-01T04:13:09;102601.75;;;-3.90;98.19
75640;BME280;64233;51.486;6.332;2023-03-01T04:15:35;102603.78;;;-3.93;98.31
75640;BME280;64233;51.486;6.332;2023-03-01T04:18:00;102591.28;;;-3.90;98.22
75640;BME280;64233;51.486;6.332;2023-03-01T04:20:29;102583.31;;;-3.88;98.28
75640;BME280;64233;51.486;6.332;2023-03-01T04:25:38;102576.31;;;-3.76;98.14
75640;BME280;64233;51.486;6.332;2023-03-01T04:28:03;102574.69;;;-3.90;98.00
75640;BME280;64233;51.486;6.332;2023-03-01T04:30:29;102574.09;;;-3.94;98.14
75640;BME280;64233;51.486;6.332;2023-03-01T04:32:54;102577.03;;;-3.99;98.25
75640;BME280;64233;51.486;6.332;2023-03-01T04:35:19;102567.50;;;-4.00;98.63
75640;BME280;64233;51.486;6.332;2023-03-01T04:37:45;102575.84;;;-4.19;98.72
75640;BME280;64233;51.486;6.332;2023-03-01T04:40:11;102581.13;;;-3.94;98.95
75640;BME280;64233;51.486;6.332;2023-03-01T04:42:42;102584.41;;;-4.04;98.80
75640;BME280;64233;51.486;6.332;2023-03-01T04:45:08;102586.00;;;-4.01;99.15
75640;BME280;64233;51.486;6.332;2023-03-01T04:47:39;102578.91;;;-3.88;98.62
75640;BME280;64233;51.486;6.332;2023-03-01T04:50:04;102581.34;;;-3.98;98.66
75640;BME280;64233;51.486;6.332;2023-03-01T04:52:30;102582.09;;;-3.95;98.34
75640;BME280;64233;51.486;6.332;2023-03-01T04:54:55;102578.44;;;-4.06;98.51
75640;BME280;64233;51.486;6.332;2023-03-01T04:57:21;102576.03;;;-4.09;98.69
75640;BME280;64233;51.486;6.332;2023-03-01T04:59:46;102581.38;;;-4.10;98.63
75640;BME280;64233;51.486;6.332;2023-03-01T05:02:11;102576.59;;;-4.17;98.72
75640;BME280;64233;51.486;6.332;2023-03-01T05:04:36;102572.06;;;-4.15;98.49
75640;BME280;64233;51.486;6.332;2023-03-01T05:07:02;102570.00;;;-4.22;98.77
75640;BME280;64233;51.486;6.332;2023-03-01T05:09:27;102579.16;;;-4.04;98.64
75640;BME280;64233;51.486;6.332;2023-03-01T05:11:52;102569.78;;;-3.95;98.38
75640;BME280;64233;51.486;6.332;2023-03-01T05:14:17;102560.91;;;-4.05;98.39
75640;BME280;64233;51.486;6.332;2023-03-01T05:16:43;102565.75;;;-4.12;98.18
75640;BME280;64233;51.486;6.332;2023-03-01T05:19:08;102560.66;;;-4.26;98.64
75640;BME280;64233;51.486;6.332;2023-03-01T05:21:40;102548.91;;;-4.21;98.87
75640;BME280;64233;51.486;6.332;2023-03-01T05:24:26;102559.28;;;-4.19;98.97
75640;BME280;64233;51.486;6.332;2023-03-01T05:26:52;102553.81;;;-4.16;98.90
75640;BME280;64233;51.486;6.332;2023-03-01T05:29:22;102545.38;;;-4.08;98.76
75640;BME280;64233;51.486;6.332;2023-03-01T05:31:52;102544.38;;;-4.19;98.62
75640;BME280;64233;51.486;6.332;2023-03-01T05:34:18;102550.38;;;-4.17;98.86
75640;BME280;64233;51.486;6.332;2023-03-01T05:36:44;102538.63;;;-4.24;98.65
75640;BME280;64233;51.486;6.332;2023-03-01T05:39:09;102548.50;;;-4.27;99.03
75640;BME280;64233;51.486;6.332;2023-03-01T05:41:34;102546.22;;;-4.32;98.88
75640;BME280;64233;51.486;6.332;2023-03-01T05:44:00;102546.97;;;-4.43;98.99
75640;BME280;64233;51.486;6.332;2023-03-01T05:46:25;102544.75;;;-4.36;99.39
75640;BME280;64233;51.486;6.332;2023-03-01T05:48:50;102539.19;;;-4.44;99.59
75640;BME280;64233;51.486;6.332;2023-03-01T05:51:16;102538.56;;;-4.48;99.80
75640;BME280;64233;51.486;6.332;2023-03-01T05:53:41;102541.53;;;-4.53;99.65
75640;BME280;64233;51.486;6.332;2023-03-01T05:56:06;102546.03;;;-4.55;99.92
75640;BME280;64233;51.486;6.332;2023-03-01T05:58:32;102546.88;;;-4.54;99.95
75640;BME280;64233;51.486;6.332;2023-03-01T06:00:57;102543.22;;;-4.52;99.90
75640;BME280;64233;51.486;6.332;2023-03-01T06:03:22;102539.00;;;-4.54;99.95
75640;BME280;64233;51.486;6.332;2023-03-01T06:05:48;102538.56;;;-4.48;100.00
75640;BME280;64233;51.486;6.332;2023-03-01T06:08:13;102531.97;;;-4.41;100.00
75640;BME280;64233;51.486;6.332;2023-03-01T06:10:38;102531.34;;;-4.44;100.00
75640;BME280;64233;51.486;6.332;2023-03-01T06:13:04;102542.06;;;-4.47;100.00
75640;BME280;64233;51.486;6.332;2023-03-01T06:15:30;102540.56;;;-4.39;100.00
75640;BME280;64233;51.486;6.332;2023-03-01T06:17:55;102546.84;;;-4.41;100.00
75640;BME280;64233;51.486;6.332;2023-03-01T06:20:26;102537.84;;;-4.50;100.00
75640;BME280;64233;51.486;6.332;2023-03-01T06:22:52;102542.66;;;-4.44;100.00
75640;BME280;64233;51.486;6.332;2023-03-01T06:25:20;102545.59;;;-4.48;100.00
75640;BME280;64233;51.486;6.332;2023-03-01T06:27:46;102540.59;;;-4.52;100.00
75640;BME280;64233;51.486;6.332;2023-03-01T06:30:14;102541.75;;;-4.56;100.00
75640;BME280;64233;51.486;6.332;2023-03-01T06:32:40;102540.69;;;-4.53;100.00
75640;BME280;64233;51.486;6.332;2023-03-01T06:35:10;102528.63;;;-4.56;100.00
75640;BME280;64233;51.486;6.332;2023-03-01T06:37:36;102533.34;;;-4.61;100.00
75640;BME280;64233;51.486;6.332;2023-03-01T06:40:03;102537.22;;;-4.54;100.00
75640;BME280;64233;51.486;6.332;2023-03-01T06:42:37;102531.56;;;-4.47;100.00
75640;BME280;64233;51.486;6.332;2023-03-01T06:45:05;102526.44;;;-4.49;100.00
75640;BME280;64233;51.486;6.332;2023-03-01T06:47:31;102534.59;;;-4.41;100.00
75640;BME280;64233;51.486;6.332;2023-03-01T06:49:58;102524.78;;;-4.26;100.00
75640;BME280;64233;51.486;6.332;2023-03-01T06:52:23;102538.00;;;-4.27;100.00
75640;BME280;64233;51.486;6.332;2023-03-01T06:54:49;102544.47;;;-4.20;100.00
75640;BME280;64233;51.486;6.332;2023-03-01T06:57:14;102538.63;;;-4.24;100.00
75640;BME280;64233;51.486;6.332;2023-03-01T06:59:39;102541.56;;;-4.28;100.00
75640;BME280;64233;51.486;6.332;2023-03-01T07:02:04;102533.00;;;-4.30;100.00
75640;BME280;64233;51.486;6.332;2023-03-01T07:04:29;102533.91;;;-4.32;100.00
75640;BME280;64233;51.486;6.332;2023-03-01T07:06:55;102537.56;;;-4.21;100.00
75640;BME280;64233;51.486;6.332;2023-03-01T07:09:22;102536.44;;;-4.06;99.87
75640;BME280;64233;51.486;6.332;2023-03-01T07:11:48;102538.97;;;-4.04;99.84
75640;BME280;64233;51.486;6.332;2023-03-01T07:14:13;102543.31;;;-3.92;99.81
75640;BME280;64233;51.486;6.332;2023-03-01T07:16:39;102544.50;;;-3.96;99.66
75640;BME280;64233;51.486;6.332;2023-03-01T07:19:04;102544.03;;;-3.90;99.62
75640;BME280;64233;51.486;6.332;2023-03-01T07:21:30;102546.00;;;-3.81;99.64
75640;BME280;64233;51.486;6.332;2023-03-01T07:23:55;102549.97;;;-3.75;100.00
75640;BME280;64233;51.486;6.332;2023-03-01T07:26:21;102547.84;;;-3.70;99.95
75640;BME280;64233;51.486;6.332;2023-03-01T07:28:46;102543.94;;;-3.64;99.96
75640;BME280;64233;51.486;6.332;2023-03-01T07:31:11;102552.41;;;-3.60;100.00
75640;BME280;64233;51.486;6.332;2023-03-01T07:33:36;102551.97;;;-3.54;99.93
75640;BME280;64233;51.486;6.332;2023-03-01T07:36:03;102555.81;;;-3.47;99.73
75640;BME280;64233;51.486;6.332;2023-03-01T07:38:29;102556.16;;;-3.40;100.00
75640;BME280;64233;51.486;6.332;2023-03-01T07:40:58;102556.91;;;-3.38;100.00
75640;BME280;64233;51.486;6.332;2023-03-01T07:43:24;102556.31;;;-3.31;100.00
75640;BME280;64233;51.486;6.332;2023-03-01T07:45:49;102551.31;;;-3.22;100.00
75640;BME280;64233;51.486;6.332;2023-03-01T07:48:15;102553.75;;;-3.08;99.33
75640;BME280;64233;51.486;6.332;2023-03-01T07:50:40;102564.03;;;-2.94;98.89
75640;BME280;64233;51.486;6.332;2023-03-01T07:53:05;102551.50;;;-2.90;98.32
75640;BME280;64233;51.486;6.332;2023-03-01T07:55:30;102552.34;;;-2.78;97.41
75640;BME280;64233;51.486;6.332;2023-03-01T07:57:56;102558.09;;;-2.73;97.68
75640;BME280;64233;51.486;6.332;2023-03-01T08:00:21;102547.06;;;-2.67;97.81
75640;BME280;64233;51.486;6.332;2023-03-01T08:02:46;102551.50;;;-2.56;97.06
75640;BME280;64233;51.486;6.332;2023-03-01T08:05:12;102539.53;;;-2.49;96.94
75640;BME280;64233;51.486;6.332;2023-03-01T08:07:37;102540.97;;;-2.33;95.94
75640;BME280;64233;51.486;6.332;2023-03-01T08:10:03;102545.47;;;-2.24;94.84
75640;BME280;64233;51.486;6.332;2023-03-01T08:12:28;102549.31;;;-2.17;94.77
75640;BME280;64233;51.486;6.332;2023-03-01T08:14:54;102543.03;;;-2.04;94.97
75640;BME280;64233;51.486;6.332;2023-03-01T08:17:19;102543.25;;;-1.96;93.88
75640;BME280;64233;51.486;6.332;2023-03-01T08:19:44;102538.72;;;-1.94;94.06
75640;BME280;64233;51.486;6.332;2023-03-01T08:22:10;102541.66;;;-1.87;94.70
75640;BME280;64233;51.486;6.332;2023-03-01T08:24:35;102537.34;;;-1.77;94.46
75640;BME280;64233;51.486;6.332;2023-03-01T08:27:00;102547.50;;;-1.73;94.76
75640;BME280;64233;51.486;6.332;2023-03-01T08:29:27;102544.81;;;-1.61;94.25
75640;BME280;64233;51.486;6.332;2023-03-01T08:31:53;102545.75;;;-1.62;93.42
75640;BME280;64233;51.486;6.332;2023-03-01T08:34:18;102543.09;;;-1.51;93.55
75640;BME280;64233;51.486;6.332;2023-03-01T08:36:45;102541.34;;;-1.41;93.86
75640;BME280;64233;51.486;6.332;2023-03-01T08:39:14;102541.81;;;-1.35;93.26
75640;BME280;64233;51.486;6.332;2023-03-01T08:41:39;102539.66;;;-1.21;93.90
75640;BME280;64233;51.486;6.332;2023-03-01T08:44:06;102535.94;;;-1.18;93.25
75640;BME280;64233;51.486;6.332;2023-03-01T08:46:39;102533.88;;;-0.93;94.41
75640;BME280;64233;51.486;6.332;2023-03-01T08:49:17;102541.56;;;-0.80;93.17
75640;BME280;64233;51.486;6.332;2023-03-01T08:51:43;102539.34;;;-0.75;92.10
75640;BME280;64233;51.486;6.332;2023-03-01T08:54:14;102544.41;;;-0.62;92.55
75640;BME280;64233;51.486;6.332;2023-03-01T08:56:40;102539.88;;;-0.50;92.43
75640;BME280;64233;51.486;6.332;2023-03-01T08:59:06;102533.03;;;-0.53;89.94
75640;BME280;64233;51.486;6.332;2023-03-01T09:01:31;102541.00;;;-0.43;90.05
75640;BME280;64233;51.486;6.332;2023-03-01T09:03:57;102540.88;;;-0.32;89.61
75640;BME280;64233;51.486;6.332;2023-03-01T09:06:22;102532.56;;;-0.18;90.59
75640;BME280;64233;51.486;6.332;2023-03-01T09:08:49;102531.19;;;-0.22;89.23
75640;BME280;64233;51.486;6.332;2023-03-01T09:11:17;102526.63;;;-0.10;89.20
75640;BME280;64233;51.486;6.332;2023-03-01T09:13:44;102530.22;;;-0.11;88.43
75640;BME280;64233;51.486;6.332;2023-03-01T09:16:11;102522.44;;;-0.12;87.70
75640;BME280;64233;51.486;6.332;2023-03-01T09:18:36;102519.53;;;0.01;87.91
75640;BME280;64233;51.486;6.332;2023-03-01T09:21:06;102516.34;;;0.07;87.58
75640;BME280;64233;51.486;6.332;2023-03-01T09:23:37;102515.09;;;0.11;87.26
75640;BME280;64233;51.486;6.332;2023-03-01T09:26:05;102518.16;;;0.26;87.40
75640;BME280;64233;51.486;6.332;2023-03-01T09:28:30;102517.47;;;0.33;87.87
75640;BME280;64233;51.486;6.332;2023-03-01T09:30:59;102512.44;;;0.50;88.05
75640;BME280;64233;51.486;6.332;2023-03-01T09:33:26;102501.88;;;0.50;86.71
75640;BME280;64233;51.486;6.332;2023-03-01T09:35:57;102498.13;;;0.53;85.45
75640;BME280;64233;51.486;6.332;2023-03-01T09:38:22;102499.31;;;0.68;86.20
75640;BME280;64233;51.486;6.332;2023-03-01T09:40:47;102497.09;;;0.73;85.70
75640;BME280;64233;51.486;6.332;2023-03-01T09:43:21;102502.38;;;0.63;83.78
75640;BME280;64233;51.486;6.332;2023-03-01T09:45:50;102495.53;;;0.80;84.96
75640;BME280;64233;51.486;6.332;2023-03-01T09:48:20;102491.03;;;0.91;85.02
75640;BME280;64233;51.486;6.332;2023-03-01T09:50:50;102500.47;;;1.03;84.49
75640;BME280;64233;51.486;6.332;2023-03-01T09:53:30;102494.06;;;1.06;83.51
75640;BME280;64233;51.486;6.332;2023-03-01T09:56:00;102494.94;;;1.24;84.28
75640;BME280;64233;51.486;6.332;2023-03-01T10:01:28;102486.28;;;1.04;81.88
75640;BME280;64233;51.486;6.332;2023-03-01T10:04:24;102479.38;;;1.21;82.53
75640;BME280;64233;51.486;6.332;2023-03-01T10:07:03;102474.34;;;1.28;81.89
75640;BME280;64233;51.486;6.332;2023-03-01T10:09:34;102483.09;;;1.28;81.78
75640;BME280;64233;51.486;6.332;2023-03-01T10:12:02;102474.56;;;1.34;82.32
75640;BME280;64233;51.486;6.332;2023-03-01T10:14:53;102471.50;;;1.39;83.12
75640;BME280;64233;51.486;6.332;2023-03-01T10:17:37;102474.22;;;1.47;81.59
75640;BME280;64233;51.486;6.332;2023-03-01T10:20:24;102464.63;;;1.46;81.39
75640;BME280;64233;51.486;6.332;2023-03-01T10:22:50;102463.97;;;1.62;80.94
75640;BME280;64233;51.486;6.332;2023-03-01T10:25:26;102461.81;;;1.66;80.55
75640;BME280;64233;51.486;6.332;2023-03-01T10:28:02;102459.34;;;1.82;80.53
75640;BME280;64233;51.486;6.332;2023-03-01T10:30:37;102457.38;;;1.66;78.96
75640;BME280;64233;51.486;6.332;2023-03-01T10:33:26;102457.41;;;1.84;79.60
75640;BME280;64233;51.486;6.332;2023-03-01T10:35:52;102452.53;;;1.98;80.42
75640;BME280;64233;51.486;6.332;2023-03-01T10:38:19;102438.00;;;1.84;79.11
75640;BME280;64233;51.486;6.332;2023-03-01T10:40:59;102440.06;;;1.72;78.11
75640;BME280;64233;51.486;6.332;2023-03-01T10:43:43;102447.69;;;1.75;78.72
75640;BME280;64233;51.486;6.332;2023-03-01T10:51:43;102422.72;;;2.40;78.19
75640;BME280;64233;51.486;6.332;2023-03-01T10:54:24;102407.41;;;2.08;76.03
75640;BME280;64233;51.486;6.332;2023-03-01T10:56:56;102417.41;;;2.40;78.66
75640;BME280;64233;51.486;6.332;2023-03-01T10:59:33;102412.59;;;2.35;77.11
75640;BME280;64233;51.486;6.332;2023-03-01T11:04:29;102416.53;;;2.31;75.45
75640;BME280;64233;51.486;6.332;2023-03-01T11:06:59;102409.78;;;2.37;77.43
75640;BME280;64233;51.486;6.332;2023-03-01T11:09:25;102412.06;;;2.58;76.30
75640;BME280;64233;51.486;6.332;2023-03-01T11:11:57;102403.38;;;2.48;74.73
75640;BME280;64233;51.486;6.332;2023-03-01T11:14:30;102407.75;;;2.57;74.58
75640;BME280;64233;51.486;6.332;2023-03-01T11:17:18;102411.84;;;2.51;74.83
75640;BME280;64233;51.486;6.332;2023-03-01T11:22:31;102409.59;;;2.65;75.85
75640;BME280;64233;51.486;6.332;2023-03-01T11:24:58;102412.59;;;3.04;77.20
75640;BME280;64233;51.486;6.332;2023-03-01T11:27:32;102410.38;;;2.91;75.57
75640;BME280;64233;51.486;6.332;2023-03-01T11:30:05;102409.72;;;2.98;74.64
75640;BME280;64233;51.486;6.332;2023-03-01T11:32:57;102406.59;;;2.94;74.76
75640;BME280;64233;51.486;6.332;2023-03-01T11:35:27;102401.75;;;2.89;73.68
75640;BME280;64233;51.486;6.332;2023-03-01T11:40:35;102404.69;;;2.78;72.49
75640;BME280;64233;51.486;6.332;2023-03-01T11:43:16;102405.31;;;3.15;72.29
75640;BME280;64233;51.486;6.332;2023-03-01T11:46:01;102398.69;;;3.10;71.93
75640;BME280;64233;51.486;6.332;2023-03-01T11:49:02;102393.31;;;2.94;70.97
75640;BME280;64233;51.486;6.332;2023-03-01T11:51:55;102395.78;;;2.87;71.26
75640;BME280;64233;51.486;6.332;2023-03-01T11:56:55;102396.03;;;3.10;69.36
75640;BME280;64233;51.486;6.332;2023-03-01T11:59:32;102384.28;;;3.30;69.31
75640;BME280;64233;51.486;6.332;2023-03-01T12:04:52;102387.63;;;3.40;69.42
75640;BME280;64233;51.486;6.332;2023-03-01T12:07:45;102379.81;;;3.38;69.77
75640;BME280;64233;51.486;6.332;2023-03-01T12:10:27;102380.97;;;3.19;68.70
75640;BME280;64233;51.486;6.332;2023-03-01T12:18:37;102386.63;;;3.41;66.98
75640;BME280;64233;51.486;6.332;2023-03-01T12:21:50;102386.66;;;3.74;67.97
75640;BME280;64233;51.486;6.332;2023-03-01T12:27:30;102374.72;;;4.03;67.73
75640;BME280;64233;51.486;6.332;2023-03-01T12:35:58;102352.94;;;3.99;67.96
75640;BME280;64233;51.486;6.332;2023-03-01T12:41:48;102328.91;;;3.76;66.35
75640;BME280;64233;51.486;6.332;2023-03-01T12:49:55;102331.16;;;4.12;67.06
75640;BME280;64233;51.486;6.332;2023-03-01T12:52:36;102328.16;;;4.23;68.57
75640;BME280;64233;51.486;6.332;2023-03-01T12:55:08;102319.75;;;3.87;66.34
75640;BME280;64233;51.486;6.332;2023-03-01T12:58:08;102331.75;;;4.39;68.69
75640;BME280;64233;51.486;6.332;2023-03-01T13:03:10;102308.56;;;4.24;64.75
75640;BME280;64233;51.486;6.332;2023-03-01T13:08:31;102317.34;;;4.25;66.04
75640;BME280;64233;51.486;6.332;2023-03-01T13:11:03;102310.22;;;4.25;64.22
75640;BME280;64233;51.486;6.332;2023-03-01T13:13:44;102310.22;;;4.25;65.01
75640;BME280;64233;51.486;6.332;2023-03-01T13:19:15;102306.41;;;4.20;66.21
75640;BME280;64233;51.486;6.332;2023-03-01T13:21:42;102303.59;;;4.61;66.60
75640;BME280;64233;51.486;6.332;2023-03-01T13:29:49;102287.56;;;4.69;66.86
75640;BME280;64233;51.486;6.332;2023-03-01T13:32:33;102288.84;;;4.50;66.63
75640;BME280;64233;51.486;6.332;2023-03-01T13:35:03;102278.47;;;4.63;64.54
75640;BME280;64233;51.486;6.332;2023-03-01T13:37:35;102278.91;;;4.44;63.78
75640;BME280;64233;51.486;6.332;2023-03-01T13:40:07;102279.97;;;4.58;64.18
75640;BME280;64233;51.486;6.332;2023-03-01T13:42:52;102276.63;;;4.95;65.84
75640;BME280;64233;51.486;6.332;2023-03-01T13:45:22;102262.63;;;4.70;65.31
75640;BME280;64233;51.486;6.332;2023-03-01T13:48:02;102257.13;;;4.72;65.41
75640;BME280;64233;51.486;6.332;2023-03-01T13:50:38;102249.28;;;4.78;65.75
75640;BME280;64233;51.486;6.332;2023-03-01T13:53:06;102230.84;;;4.54;63.14
75640;BME280;64233;51.486;6.332;2023-03-01T13:55:37;102245.59;;;4.56;63.75
75640;BME280;64233;51.486;6.332;2023-03-01T13:58:13;102233.19;;;4.48;62.78
75640;BME280;64233;51.486;6.332;2023-03-01T14:00:41;102226.66;;;4.59;64.34
75640;BME280;64233;51.486;6.332;2023-03-01T14:03:12;102220.28;;;4.37;61.40
75640;BME280;64233;51.486;6.332;2023-03-01T14:06:12;102227.84;;;4.48;62.36
75640;BME280;64233;51.486;6.332;2023-03-01T14:08:45;102210.97;;;4.64;62.87